Time;durP1;ratioP1;P1;durP2;ratioP2;P2;SDS_P1;SDS_P2;PMS_P1;PMS_P2;Temp;Humidity;BMP_temperature;BMP_pressure;BME280_temperature;BME280_humidity;BME280_pressure;Samples;Min_cycle;Max_cycle;Signal;HPM_P1;HPM_P2
2022/06/25 00:02:19;;;;;;;4.97;4.45;;;;;;;19.15;100.00;100786.28;5062201;28;20142;-73
2022/06/25 00:07:32;;;;;;;3.83;3.50;;;;;;;19.04;100.00;100804.53;5063582;28;20079;-73
2022/06/25 00:09:57;;;;;;;4.60;4.00;;;;;;;18.97;100.00;100807.88;5064661;28;20672;-73
2022/06/25 00:12:32;;;;;;;3.90;3.60;;;;;;;18.98;100.00;100803.13;5065445;28;20063;-74
2022/06/25 00:14:57;;;;;;;4.75;4.30;;;;;;;18.97;100.00;100799.53;5061066;28;20286;-73
2022/06/25 00:17:23;;;;;;;6.97;4.80;;;;;;;19.01;100.00;100810.78;5064421;28;20425;-73
2022/06/25 00:19:48;;;;;;;5.75;4.30;;;;;;;18.98;100.00;100803.91;5064250;28;20487;-74
2022/06/25 00:22:14;;;;;;;6.18;4.40;;;;;;;19.03;100.00;100806.47;5064073;28;20103;-74
2022/06/25 00:24:39;;;;;;;5.32;4.50;;;;;;;19.00;100.00;100807.16;5062878;28;20486;-74
2022/06/25 00:27:05;;;;;;;5.03;4.07;;;;;;;19.03;100.00;100805.69;5065591;28;20060;-73
2022/06/25 00:29:33;;;;;;;4.07;3.72;;;;;;;19.01;100.00;100803.25;5058336;28;20029;-73
2022/06/25 00:31:59;;;;;;;4.65;4.13;;;;;;;18.99;100.00;100802.78;5062596;28;20090;-73
2022/06/25 00:34:26;;;;;;;5.28;4.20;;;;;;;18.93;100.00;100795.78;5063490;28;20489;-74
2022/06/25 00:36:52;;;;;;;6.28;4.20;;;;;;;18.93;100.00;100798.56;5030241;28;20032;-72
2022/06/25 00:39:17;;;;;;;6.57;4.30;;;;;;;18.89;100.00;100805.97;5029980;28;20382;-74
2022/06/25 00:41:43;;;;;;;5.70;4.07;;;;;;;18.86;100.00;100801.09;5045328;28;20029;-72
2022/06/25 00:44:09;;;;;;;5.95;3.72;;;;;;;18.88;100.00;100798.78;5058778;28;20047;-74
2022/06/25 00:46:35;;;;;;;5.03;4.30;;;;;;;18.85;100.00;100802.25;5061218;28;20283;-72
2022/06/25 00:49:03;;;;;;;5.68;4.07;;;;;;;18.84;100.00;100795.03;5063730;28;20021;-74
2022/06/25 00:51:37;;;;;;;5.28;4.78;;;;;;;18.83;100.00;100807.31;5065422;28;20029;-72
2022/06/25 00:54:05;;;;;;;6.93;4.40;;;;;;;18.81;100.00;100798.50;5062592;28;20041;-73
2022/06/25 00:56:40;;;;;;;5.70;4.30;;;;;;;18.74;100.00;100799.00;5045274;28;20039;-73
2022/06/25 00:59:06;;;;;;;5.72;4.35;;;;;;;18.70;100.00;100798.09;5059745;28;20589;-72
2022/06/25 01:01:40;;;;;;;5.40;4.63;;;;;;;18.64;100.00;100813.31;5043796;28;20040;-74
2022/06/25 01:04:06;;;;;;;9.00;4.43;;;;;;;18.60;100.00;100804.84;5061804;28;20117;-73
2022/06/25 01:06:34;;;;;;;5.30;4.80;;;;;;;18.54;100.00;100808.97;5045978;28;20108;-72
2022/06/25 01:09:00;;;;;;;6.90;5.55;;;;;;;18.57;100.00;100815.81;5063179;28;20032;-72
2022/06/25 01:11:26;;;;;;;6.85;4.70;;;;;;;18.61;100.00;100811.22;5064321;28;20020;-73
2022/06/25 01:13:57;;;;;;;5.55;4.85;;;;;;;18.54;100.00;100808.97;5057599;28;20426;-72
2022/06/25 01:16:23;;;;;;;6.60;5.00;;;;;;;18.55;100.00;100818.94;5042806;28;20060;-73
2022/06/25 01:18:49;;;;;;;7.28;5.25;;;;;;;18.55;100.00;100822.50;5059535;28;20034;-71
2022/06/25 01:21:15;;;;;;;7.95;5.13;;;;;;;18.57;100.00;100821.38;5064207;28;20027;-73
2022/06/25 01:23:41;;;;;;;9.35;5.63;;;;;;;18.55;100.00;100825.28;5062946;28;20024;-73
2022/06/25 01:26:10;;;;;;;8.27;5.40;;;;;;;18.57;100.00;100827.72;5047667;28;20029;-72
2022/06/25 01:28:35;;;;;;;7.47;5.88;;;;;;;18.57;100.00;100827.72;5066713;28;20150;-72
2022/06/25 01:31:00;;;;;;;11.95;6.35;;;;;;;18.58;100.00;100839.63;5059602;28;20145;-73
2022/06/25 01:33:26;;;;;;;12.27;6.15;;;;;;;18.54;100.00;100843.13;5064913;28;20117;-73
2022/06/25 01:35:51;;;;;;;9.20;5.70;;;;;;;18.56;100.00;100845.53;5044405;28;20035;-71
2022/06/25 01:38:16;;;;;;;11.18;5.63;;;;;;;18.52;100.00;100850.94;5063148;28;20044;-73
2022/06/25 01:40:42;;;;;;;7.15;5.22;;;;;;;18.46;100.00;100846.75;5062341;28;20428;-73
2022/06/25 01:43:07;;;;;;;10.35;6.25;;;;;;;18.45;100.00;100847.91;5046665;28;20044;-73
2022/06/25 01:45:50;;;;;;;8.07;5.75;;;;;;;18.44;100.00;100851.00;5061254;28;20024;-73
2022/06/25 01:48:15;;;;;;;7.97;5.93;;;;;;;18.32;100.00;100849.75;5063276;28;20016;-74
2022/06/25 01:50:41;;;;;;;10.13;6.20;;;;;;;18.32;100.00;100849.75;5027575;28;20043;-74
2022/06/25 01:53:08;;;;;;;10.30;6.38;;;;;;;18.31;100.00;100853.66;5062459;28;20098;-73
2022/06/25 01:55:33;;;;;;;10.65;6.20;;;;;;;18.31;100.00;100853.66;5060633;28;20044;-72
2022/06/25 01:57:58;;;;;;;8.05;6.43;;;;;;;18.27;100.00;100855.50;5060074;28;20109;-74
2022/06/25 02:00:27;;;;;;;9.50;6.57;;;;;;;18.27;100.00;100849.94;5024629;28;20040;-74
2022/06/25 02:02:53;;;;;;;10.68;6.40;;;;;;;18.26;100.00;100850.28;5059227;28;20498;-74
2022/06/25 02:08:07;;;;;;;11.15;7.20;;;;;;;18.19;100.00;100862.72;5063427;28;20063;-72
2022/06/25 02:10:32;;;;;;;9.98;6.45;;;;;;;18.16;100.00;100862.56;5062903;28;20031;-73
2022/06/25 02:12:58;;;;;;;10.07;7.72;;;;;;;18.15;100.00;100866.47;5061086;28;20752;-72
2022/06/25 02:15:23;;;;;;;12.30;7.90;;;;;;;18.16;100.00;100866.16;5058610;28;20207;-73
2022/06/25 02:17:49;;;;;;;11.35;7.00;;;;;;;18.09;100.00;100865.88;5058882;28;20085;-73
2022/06/25 02:20:14;;;;;;;13.63;8.35;;;;;;;18.14;100.00;100870.41;5028316;28;20089;-73
2022/06/25 02:22:43;;;;;;;12.25;8.40;;;;;;;18.16;100.00;100873.66;5045422;28;20177;-73
2022/06/25 02:25:08;;;;;;;12.77;7.97;;;;;;;18.17;100.00;100872.53;5061228;28;20061;-74
2022/06/25 02:27:34;;;;;;;13.52;8.05;;;;;;;18.14;100.00;100873.19;5061909;28;20037;-73
2022/06/25 02:30:00;;;;;;;13.77;8.82;;;;;;;18.14;100.00;100868.44;5040553;28;20625;-73
2022/06/25 02:32:26;;;;;;;13.65;8.48;;;;;;;18.17;100.00;100873.34;5061909;28;20495;-73
2022/06/25 02:34:51;;;;;;;15.70;9.55;;;;;;;18.11;100.00;100882.97;5060184;28;20086;-74
2022/06/25 02:37:16;;;;;;;14.27;8.70;;;;;;;18.12;100.00;100886.59;5062713;28;20025;-73
2022/06/25 02:39:45;;;;;;;12.10;8.75;;;;;;;18.12;100.00;100878.28;5062684;28;20116;-74
2022/06/25 02:42:10;;;;;;;12.95;8.63;;;;;;;18.09;100.00;100879.75;5045575;28;20021;-74
2022/06/25 02:44:35;;;;;;;14.75;9.85;;;;;;;18.09;100.00;100888.06;5057565;28;20070;-73
2022/06/25 02:47:01;;;;;;;13.77;8.80;;;;;;;18.12;100.00;100890.16;5044110;28;20422;-72
2022/06/25 02:49:26;;;;;;;15.05;10.40;;;;;;;18.11;100.00;100899.63;5046000;28;20028;-74
2022/06/25 02:51:51;;;;;;;11.68;8.93;;;;;;;18.07;100.00;100900.63;5062624;28;20517;-73
2022/06/25 02:54:17;;;;;;;16.92;10.95;;;;;;;18.06;100.00;100901.78;5044460;28;20515;-74
2022/06/25 02:59:37;;;;;;;14.68;10.32;;;;;;;18.05;100.00;100911.25;5059542;28;20109;-73
2022/06/25 03:02:03;;;;;;;14.70;10.48;;;;;;;18.08;100.00;100910.59;5045314;28;20522;-73
2022/06/25 03:04:29;;;;;;;13.52;9.20;;;;;;;18.04;100.00;100912.38;5063767;28;20028;-74
2022/06/25 03:06:54;;;;;;;13.65;9.10;;;;;;;18.02;100.00;100914.69;5062443;28;20035;-73
2022/06/25 03:09:19;;;;;;;16.75;9.00;;;;;;;17.98;100.00;100912.56;5045614;28;20028;-74
2022/06/25 03:11:48;;;;;;;13.77;8.88;;;;;;;17.99;100.00;100911.44;5062914;28;20032;-72
2022/06/25 03:14:13;;;;;;;11.15;8.35;;;;;;;18.03;100.00;100908.00;5058168;28;20093;-74
2022/06/25 03:16:39;;;;;;;11.38;8.52;;;;;;;17.97;100.00;100915.66;5061842;28;20052;-73
2022/06/25 03:19:04;;;;;;;11.50;8.70;;;;;;;18.07;100.00;100908.94;5043991;28;20327;-72
2022/06/25 03:21:29;;;;;;;11.95;8.07;;;;;;;18.12;100.00;100919.88;5029461;28;20131;-72
2022/06/25 03:23:55;;;;;;;12.32;8.75;;;;;;;18.09;100.00;100923.31;5059823;28;20413;-73
2022/06/25 03:26:20;;;;;;;11.00;7.50;;;;;;;18.16;100.00;100920.84;5045611;28;20029;-73
2022/06/25 03:28:58;;;;;;;10.65;7.45;;;;;;;18.18;100.00;100918.53;5042173;28;20776;-73
2022/06/25 03:31:24;;;;;;;10.43;7.57;;;;;;;18.23;100.00;100925.88;5064273;28;20542;-73
2022/06/25 03:33:49;;;;;;;9.98;6.72;;;;;;;18.22;100.00;100922.28;5047030;28;20059;-73
2022/06/25 03:36:15;;;;;;;10.40;6.28;;;;;;;18.28;100.00;100926.53;5047586;28;20032;-73
2022/06/25 03:38:41;;;;;;;6.95;5.40;;;;;;;18.31;100.00;100933.34;5047395;28;20036;-74
2022/06/25 03:43:59;;;;;;;9.80;5.10;;;;;;;18.28;100.00;100936.78;5062346;28;20456;-74
2022/06/25 03:46:25;;;;;;;5.95;4.32;;;;;;;18.49;100.00;100936.88;5062855;28;20047;-72
2022/06/25 03:48:52;;;;;;;5.65;4.13;;;;;;;18.60;100.00;100940.91;5062057;28;20340;-73
2022/06/25 03:51:17;;;;;;;7.88;4.22;;;;;;;18.50;100.00;100944.06;5064158;28;20458;-72
2022/06/25 03:53:43;;;;;;;8.63;4.05;;;;;;;18.60;100.00;100946.44;5064730;28;20045;-73
2022/06/25 03:56:09;;;;;;;8.07;3.92;;;;;;;18.78;100.00;100949.94;5062001;28;20039;-73
2022/06/25 03:58:34;;;;;;;4.95;3.63;;;;;;;18.76;100.00;100959.75;5064189;28;20162;-73
2022/06/25 04:00:59;;;;;;;5.70;3.70;;;;;;;18.81;100.00;100959.59;5061444;28;20415;-74
2022/06/25 04:03:25;;;;;;;5.10;3.55;;;;;;;18.88;100.00;100960.69;5065546;28;20239;-73
2022/06/25 04:05:51;;;;;;;6.05;3.17;;;;;;;18.94;100.00;100966.06;5063604;28;20100;-74
2022/06/25 04:08:16;;;;;;;4.05;3.28;;;;;;;18.98;100.00;100967.84;5046926;28;20093;-73
2022/06/25 04:10:42;;;;;;;7.22;3.50;;;;;;;18.87;100.00;100969.38;5064965;28;20032;-73
2022/06/25 04:13:08;;;;;;;6.53;3.47;;;;;;;18.96;100.00;100970.13;5061899;28;20029;-73
2022/06/25 04:15:35;;;;;;;6.40;3.22;;;;;;;19.00;100.00;100964.72;5059556;28;20028;-73
2022/06/25 04:18:01;;;;;;;7.88;3.40;;;;;;;19.01;100.00;100967.16;5060762;28;20067;-74
2022/06/25 04:20:26;;;;;;;9.48;3.78;;;;;;;19.13;100.00;100971.19;5047423;28;20597;-74
2022/06/25 04:22:54;;;;;;;7.35;3.55;;;;;;;19.32;100.00;100967.94;5064562;28;20516;-73
2022/06/25 04:25:20;;;;;;;7.07;3.70;;;;;;;19.30;100.00;100971.06;5065890;28;20028;-74
2022/06/25 04:30:29;;;;;;;5.57;3.65;;;;;;;19.27;100.00;100972.53;5047690;28;20161;-74
2022/06/25 04:32:55;;;;;;;8.48;3.50;;;;;;;19.27;100.00;100968.97;5061452;28;20052;-73
2022/06/25 04:35:20;;;;;;;8.02;3.92;;;;;;;19.32;100.00;100970.72;5062808;28;20039;-73
2022/06/25 04:37:46;;;;;;;6.40;4.10;;;;;;;19.35;100.00;100968.09;5065760;28;20028;-74
2022/06/25 04:40:12;;;;;;;6.18;3.25;;;;;;;19.35;100.00;100970.88;5062488;28;20032;-73
2022/06/25 04:42:37;;;;;;;7.20;3.40;;;;;;;19.40;100.00;100967.88;5063840;28;20393;-73
2022/06/25 04:45:03;;;;;;;7.72;3.72;;;;;;;19.45;100.00;100973.22;5059693;28;20035;-74
2022/06/25 04:47:28;;;;;;;7.38;4.03;;;;;;;19.51;100.00;100976.59;5062566;28;20402;-73
2022/06/25 04:49:57;;;;;;;7.50;3.50;;;;;;;19.55;100.00;100982.31;5046043;28;20036;-74
2022/06/25 04:52:22;;;;;;;5.70;3.60;;;;;;;19.41;100.00;100977.03;5062052;28;20020;-74
2022/06/25 04:54:50;;;;;;;5.90;3.22;;;;;;;19.42;100.00;100989.78;5064159;28;20052;-74
2022/06/25 04:57:16;;;;;;;7.57;3.63;;;;;;;19.54;100.00;100987.03;5046981;28;20387;-74
2022/06/25 04:59:41;;;;;;;6.28;3.35;;;;;;;19.37;100.00;100993.56;5043573;28;20036;-73
2022/06/25 05:02:07;;;;;;;5.95;3.40;;;;;;;19.53;100.00;100995.72;5061661;28;20474;-74
2022/06/25 05:04:32;;;;;;;3.10;2.80;;;;;;;19.51;100.00;101003.59;5030026;28;20201;-74
2022/06/25 05:06:58;;;;;;;6.03;3.47;;;;;;;19.61;100.00;101004.03;5028595;28;20494;-74
2022/06/25 05:09:25;;;;;;;6.82;3.72;;;;;;;19.78;100.00;100999.50;5047013;28;20032;-74
2022/06/25 05:11:51;;;;;;;5.13;3.53;;;;;;;19.70;100.00;101006.72;5063318;28;20036;-74
2022/06/25 05:14:16;;;;;;;6.07;3.38;;;;;;;19.88;100.00;101004.63;5056164;28;20694;-74
2022/06/25 05:16:42;;;;;;;5.90;3.67;;;;;;;19.90;100.00;101016.22;5061081;28;20116;-74
2022/06/25 05:19:08;;;;;;;5.57;3.65;;;;;;;19.81;100.00;101012.72;5060697;28;20075;-73
2022/06/25 05:21:34;;;;;;;6.80;3.60;;;;;;;19.87;100.00;101014.13;5063649;28;20055;-75
2022/06/25 05:24:03;;;;;;;9.85;4.10;;;;;;;19.71;100.00;101013.09;5061334;28;20116;-73
2022/06/25 05:26:28;;;;;;;8.88;3.80;;;;;;;19.74;100.00;101020.75;5046702;28;20059;-75
2022/06/25 05:28:58;;;;;;;4.82;3.30;;;;;;;19.92;100.00;101029.78;5041222;28;20056;-74
2022/06/25 05:31:24;;;;;;;4.72;3.30;;;;;;;19.98;100.00;101031.22;5044430;28;20078;-74
2022/06/25 05:33:49;;;;;;;9.38;3.33;;;;;;;20.14;100.00;101031.41;5044048;28;20040;-75
2022/06/25 05:36:15;;;;;;;5.40;3.20;;;;;;;20.26;100.00;101044.53;5061291;28;20031;-74
2022/06/25 05:38:40;;;;;;;8.10;3.38;;;;;;;20.00;100.00;101037.25;5062191;28;20443;-74
2022/06/25 05:41:08;;;;;;;5.45;3.10;;;;;;;20.07;100.00;101042.25;5061986;28;20025;-75
2022/06/25 05:43:34;;;;;;;4.22;2.92;;;;;;;20.04;100.00;101041.00;5045334;28;20021;-75
2022/06/25 05:46:02;;;;;;;7.18;3.70;;;;;;;20.16;100.00;101049.38;5058947;28;20352;-74
2022/06/25 05:48:27;;;;;;;6.78;3.20;;;;;;;20.02;100.00;101046.91;5063064;28;20051;-73
2022/06/25 05:50:53;;;;;;;8.48;3.30;;;;;;;19.97;100.00;101049.88;5062178;28;20039;-74
2022/06/25 05:53:20;;;;;;;6.47;3.05;;;;;;;20.04;100.00;101054.91;5044027;28;20292;-74
2022/06/25 05:55:45;;;;;;;6.40;3.58;;;;;;;20.16;100.00;101065.25;5029321;28;20059;-74
2022/06/25 05:58:12;;;;;;;7.18;3.40;;;;;;;20.32;100.00;101068.22;5063067;28;20116;-73
2022/06/25 06:00:50;;;;;;;3.97;3.10;;;;;;;20.28;100.00;101058.91;5040964;28;20055;-73
2022/06/25 06:03:15;;;;;;;5.00;3.25;;;;;;;20.45;100.00;101067.09;5062396;28;20109;-75
2022/06/25 06:05:40;;;;;;;5.60;3.40;;;;;;;20.48;100.00;101055.28;5048448;28;20470;-75
2022/06/25 06:08:06;;;;;;;6.35;3.55;;;;;;;20.09;100.00;101049.13;5045989;28;20052;-75
2022/06/25 06:10:33;;;;;;;6.10;3.42;;;;;;;20.67;100.00;101060.31;5046891;28;20033;-75
2022/06/25 06:12:58;;;;;;;5.53;3.35;;;;;;;20.97;100.00;101064.88;5046262;28;20044;-75
2022/06/25 06:15:23;;;;;;;7.03;3.38;;;;;;;21.07;100.00;101078.34;5022032;28;20253;-74
2022/06/25 06:17:49;;;;;;;6.75;3.28;;;;;;;20.92;100.00;101072.31;5061420;28;20373;-75
2022/06/25 06:20:14;;;;;;;3.90;2.90;;;;;;;21.18;100.00;101079.50;5060562;28;20036;-75
2022/06/25 06:22:39;;;;;;;6.88;3.28;;;;;;;21.16;100.00;101081.84;5061724;28;20508;-75
2022/06/25 06:25:06;;;;;;;5.60;3.28;;;;;;;21.19;100.00;101088.72;5029489;28;20094;-75
2022/06/25 06:27:31;;;;;;;4.20;3.22;;;;;;;21.09;100.00;101087.19;5063533;28;20020;-74
2022/06/25 06:29:57;;;;;;;3.55;3.08;;;;;;;20.98;100.00;101084.03;5059195;28;20055;-75
2022/06/25 06:32:22;;;;;;;4.47;3.20;;;;;;;20.66;100.00;101083.78;5058909;28;20210;-75
2022/06/25 06:34:48;;;;;;;8.20;3.60;;;;;;;20.56;100.00;101098.94;5063333;28;20068;-75
2022/06/25 06:37:13;;;;;;;4.60;3.70;;;;;;;20.44;100.00;101095.28;5060686;28;20039;-74
2022/06/25 06:39:38;;;;;;;6.30;3.85;;;;;;;20.33;100.00;101095.72;5062168;28;20066;-75
2022/06/25 06:42:08;;;;;;;6.97;3.53;;;;;;;20.32;100.00;101096.88;5029363;28;20034;-75
2022/06/25 06:44:34;;;;;;;5.80;3.30;;;;;;;20.36;100.00;101105.34;5040102;28;20043;-75
2022/06/25 06:46:59;;;;;;;6.28;3.85;;;;;;;20.27;100.00;101104.63;5042866;28;20041;-74
2022/06/25 06:49:25;;;;;;;3.95;2.05;;;;;;;19.76;100.00;101108.31;5062342;28;20433;-75
2022/06/25 06:51:50;;;;;;;4.43;1.80;;;;;;;19.38;100.00;101105.56;5030914;28;20036;-73
2022/06/25 06:54:15;;;;;;;8.35;1.90;;;;;;;19.13;100.00;101118.47;5062122;28;20048;-75
2022/06/25 06:56:41;;;;;;;6.35;1.83;;;;;;;19.20;100.00;101121.53;5047076;28;20033;-75
2022/06/25 06:59:09;;;;;;;6.35;1.65;;;;;;;18.98;100.00;101120.63;5058001;28;20124;-75
2022/06/25 07:01:35;;;;;;;5.47;1.60;;;;;;;18.85;100.00;101130.81;5027815;28;20102;-75
2022/06/25 07:04:00;;;;;;;6.15;1.67;;;;;;;18.81;100.00;101140.94;5047157;28;20036;-73
2022/06/25 07:06:26;;;;;;;3.67;1.45;;;;;;;19.04;100.00;101127.66;5049656;28;20028;-75
2022/06/25 07:08:51;;;;;;;6.00;1.60;;;;;;;18.70;100.00;101132.13;5066304;28;20086;-75
2022/06/25 07:11:29;;;;;;;4.28;1.48;;;;;;;18.81;100.00;101145.69;5066158;28;20025;-75
2022/06/25 07:13:59;;;;;;;4.55;1.95;;;;;;;18.64;100.00;101147.31;5047463;28;20044;-74
2022/06/25 07:16:25;;;;;;;5.60;1.48;;;;;;;18.60;100.00;101138.03;5061798;28;20093;-74
2022/06/25 07:18:53;;;;;;;4.63;1.92;;;;;;;18.74;100.00;101146.16;5067137;28;20479;-75
2022/06/25 07:21:19;;;;;;;5.80;1.67;;;;;;;18.66;100.00;101147.00;5063890;28;20098;-75
2022/06/25 07:23:48;;;;;;;3.33;1.60;;;;;;;18.67;100.00;101149.44;5048688;28;20047;-75
2022/06/25 07:26:13;;;;;;;4.68;1.70;;;;;;;18.39;100.00;101149.00;5065129;28;20052;-76
2022/06/25 07:28:39;;;;;;;3.72;2.15;;;;;;;18.65;100.00;101148.97;5063924;28;20413;-74
2022/06/25 07:31:04;;;;;;;9.38;2.05;;;;;;;18.71;100.00;101152.41;5061688;28;20557;-75
2022/06/25 07:33:30;;;;;;;3.35;1.92;;;;;;;18.72;100.00;101163.16;5064002;28;20043;-76
2022/06/25 07:35:56;;;;;;;5.22;1.70;;;;;;;18.63;100.00;101167.13;5064931;28;20033;-75
2022/06/25 07:38:21;;;;;;;6.68;1.88;;;;;;;18.54;100.00;101181.00;5062925;28;20039;-75
2022/06/25 07:40:47;;;;;;;7.35;1.60;;;;;;;18.38;100.00;101177.91;5065505;28;20036;-74
2022/06/25 07:43:12;;;;;;;6.57;1.70;;;;;;;18.30;100.00;101178.72;5048020;28;20401;-73
2022/06/25 07:45:49;;;;;;;7.90;2.10;;;;;;;18.17;100.00;101170.22;5063212;28;20028;-74
2022/06/25 07:48:14;;;;;;;6.18;1.80;;;;;;;18.42;100.00;101181.66;5063219;28;20100;-73
2022/06/25 07:53:24;;;;;;;6.25;2.33;;;;;;;18.22;100.00;101182.31;5065750;28;20111;-75
2022/06/25 07:55:50;;;;;;;6.65;2.25;;;;;;;18.48;100.00;101179.53;5068348;28;20115;-75
2022/06/25 07:58:16;;;;;;;7.88;2.30;;;;;;;18.46;100.00;101181.81;5065699;28;20050;-73
2022/06/25 08:00:47;;;;;;;7.13;2.45;;;;;;;18.76;100.00;101185.56;5061108;28;20036;-73
2022/06/25 08:03:18;;;;;;;7.93;2.22;;;;;;;18.67;100.00;101195.84;5067405;28;20111;-75
2022/06/25 08:05:44;;;;;;;6.90;2.13;;;;;;;18.76;100.00;101181.94;5051099;28;20035;-73
2022/06/25 08:08:10;;;;;;;11.95;2.63;;;;;;;18.96;100.00;101177.69;5035117;28;20441;-75
2022/06/25 08:10:35;;;;;;;8.07;1.92;;;;;;;19.21;100.00;101184.31;5066703;28;20482;-74
2022/06/25 08:13:02;;;;;;;6.20;1.95;;;;;;;19.31;100.00;101186.72;5051433;28;20072;-75
2022/06/25 08:15:27;;;;;;;9.10;2.08;;;;;;;19.14;100.00;101186.81;5061194;28;20472;-75
2022/06/25 08:17:52;;;;;;;9.82;2.72;;;;;;;19.17;100.00;101188.88;5066139;28;20040;-75
2022/06/25 08:20:18;;;;;;;8.10;1.88;;;;;;;18.83;100.00;101190.59;5051609;28;20032;-75
2022/06/25 08:22:43;;;;;;;12.38;2.35;;;;;;;18.86;100.00;101195.53;5035237;28;20504;-75
2022/06/25 08:25:09;;;;;;;6.53;2.15;;;;;;;18.69;100.00;101196.31;5087609;28;20077;-75
2022/06/25 08:27:43;;;;;;;8.30;2.53;;;;;;;18.79;100.00;101196.00;5066953;28;20470;-75
2022/06/25 08:30:09;;;;;;;6.75;2.20;;;;;;;19.03;100.00;101201.03;5062861;28;20039;-75
2022/06/25 08:32:42;;;;;;;4.97;1.67;;;;;;;19.08;100.00;101202.81;5064039;28;20032;-75
2022/06/25 08:35:08;;;;;;;8.15;2.10;;;;;;;19.31;100.00;101211.72;5066483;28;20043;-75
2022/06/25 08:37:44;;;;;;;8.30;1.83;;;;;;;19.23;100.00;101202.31;5082753;28;20028;-74
2022/06/25 08:40:10;;;;;;;13.50;2.97;;;;;;;19.22;100.00;101208.19;5066807;28;20043;-75
2022/06/25 08:42:36;;;;;;;8.25;1.98;;;;;;;19.17;100.00;101211.97;5049747;28;20149;-75
2022/06/25 08:45:02;;;;;;;8.98;2.97;;;;;;;19.09;100.00;101205.28;5061033;28;20047;-75
2022/06/25 08:47:27;;;;;;;12.70;2.90;;;;;;;19.01;100.00;101211.66;5046466;28;20028;-76
2022/06/25 08:49:53;;;;;;;8.48;2.08;;;;;;;18.66;100.00;101219.19;5085060;28;20548;-75
2022/06/25 08:52:21;;;;;;;7.05;2.08;;;;;;;18.92;100.00;101224.75;5049494;28;20035;-76
2022/06/25 08:54:47;;;;;;;8.23;2.25;;;;;;;18.86;100.00;101226.91;5065117;28;20150;-75
2022/06/25 08:57:13;;;;;;;10.10;2.28;;;;;;;18.80;100.00;101241.25;5048872;28;20043;-75
2022/06/25 08:59:39;;;;;;;10.57;2.13;;;;;;;19.03;100.00;101228.81;5043735;28;20419;-76
2022/06/25 09:02:04;;;;;;;7.15;2.38;;;;;;;19.27;100.00;101228.25;5066104;28;20081;-77
2022/06/25 09:04:31;;;;;;;8.38;2.45;;;;;;;18.86;100.00;101234.41;5065110;28;20028;-74
2022/06/25 09:07:14;;;;;;;9.98;2.30;;;;;;;19.14;100.00;101234.84;5066573;28;20032;-75
2022/06/25 09:09:44;;;;;;;;;;;;;;;19.17;100.00;101227.78;5066116;28;20365;-75
2022/06/25 09:12:13;;;;;;;9.70;2.17;;;;;;;20.07;100.00;101224.00;5066412;28;19916;-76
2022/06/25 09:14:38;;;;;;;14.25;2.63;;;;;;;20.32;100.00;101233.31;5078870;28;20118;-75
2022/06/25 09:17:09;;;;;;;12.93;2.65;;;;;;;20.03;100.00;101234.16;5083177;28;20114;-74
2022/06/25 09:19:40;;;;;;;13.43;2.72;;;;;;;19.97;100.00;101225.19;5064707;28;20131;-75
2022/06/25 09:22:10;;;;;;;8.77;2.50;;;;;;;19.63;100.00;101235.31;5067713;28;20161;-75
2022/06/25 09:24:55;;;;;;;13.07;2.53;;;;;;;20.09;100.00;101235.59;5081344;28;20015;-74
2022/06/25 09:27:39;;;;;;;12.85;3.25;;;;;;;19.31;100.00;101225.63;5065488;28;20031;-76
2022/06/25 09:30:16;;;;;;;14.57;2.88;;;;;;;19.71;100.00;101230.03;5064093;28;20024;-77
2022/06/25 09:32:50;;;;;;;11.18;2.80;;;;;;;20.02;100.00;101233.34;5061921;28;20552;-77
2022/06/25 09:35:27;;;;;;;9.75;2.22;;;;;;;19.46;100.00;101230.66;5065884;28;20020;-78
2022/06/25 09:37:53;;;;;;;9.05;2.45;;;;;;;19.29;100.00;101236.28;5084967;28;20047;-75
2022/06/25 09:40:25;;;;;;;8.43;2.22;;;;;;;19.51;100.00;101237.97;5033524;28;20024;-73
2022/06/25 09:42:51;;;;;;;8.57;2.33;;;;;;;19.59;100.00;101239.91;5035173;28;20470;-77
2022/06/25 09:45:16;;;;;;;9.90;2.53;;;;;;;19.22;100.00;101245.13;5063250;28;20067;-75
2022/06/25 09:47:43;;;;;;;8.15;2.20;;;;;;;19.71;100.00;101249.50;5061599;28;20426;-75
2022/06/25 09:50:13;;;;;;;6.82;2.10;;;;;;;19.78;100.00;101249.84;5065831;28;20454;-75
2022/06/25 09:53:01;;;;;;;10.40;2.65;;;;;;;19.63;100.00;101257.56;5083034;28;20130;-76
2022/06/25 09:55:30;;;;;;;9.30;2.15;;;;;;;19.63;100.00;101265.13;5062504;28;20060;-74
2022/06/25 09:57:56;;;;;;;8.23;2.58;;;;;;;19.54;100.00;101264.31;5064815;28;20044;-76
2022/06/25 10:00:26;;;;;;;9.30;2.47;;;;;;;18.98;100.00;101262.34;5080493;28;20058;-76
2022/06/25 10:02:54;;;;;;;10.48;2.67;;;;;;;19.19;100.00;101272.78;5081988;28;20180;-75
2022/06/25 10:05:39;;;;;;;10.68;3.13;;;;;;;18.41;100.00;101263.28;5083140;28;20047;-74
2022/06/25 10:08:10;;;;;;;13.63;3.13;;;;;;;18.51;100.00;101276.03;5080069;28;20028;-75
2022/06/25 10:10:45;;;;;;;10.65;2.78;;;;;;;18.49;100.00;101270.00;5062794;28;20571;-75
2022/06/25 10:13:12;;;;;;;9.85;2.80;;;;;;;19.08;100.00;101267.53;5065839;28;20028;-77
2022/06/25 10:15:57;;;;;;;13.52;2.75;;;;;;;19.05;100.00;101279.34;5046417;28;20150;-76
2022/06/25 10:18:31;;;;;;;18.75;3.60;;;;;;;19.14;100.00;101270.19;5064606;28;20104;-75
2022/06/25 10:20:57;;;;;;;10.27;2.60;;;;;;;19.55;100.00;101261.22;5083250;28;20030;-76
2022/06/25 10:23:22;;;;;;;8.77;2.90;;;;;;;19.73;100.00;101264.72;5065929;28;20028;-75
2022/06/25 10:25:49;;;;;;;15.88;3.10;;;;;;;20.00;100.00;101266.28;5083032;28;20470;-75
2022/06/25 10:28:29;;;;;;;12.88;2.60;;;;;;;19.83;100.00;101269.13;5031404;28;20061;-75
2022/06/25 10:30:57;;;;;;;10.65;2.90;;;;;;;20.12;100.00;101282.25;5061608;28;20028;-78
2022/06/25 10:33:29;;;;;;;7.05;2.30;;;;;;;18.97;100.00;101291.28;5063972;28;20180;-75
2022/06/25 10:35:57;;;;;;;7.95;2.28;;;;;;;19.26;100.00;101282.22;5082270;28;20120;-76
2022/06/25 10:38:33;;;;;;;4.75;1.83;;;;;;;19.74;100.00;101282.22;5082566;28;20024;-77
2022/06/25 10:43:59;;;;;;;7.25;2.53;;;;;;;20.30;100.00;101287.69;5071074;28;20522;-76
2022/06/25 10:46:30;;;;;;;6.28;1.90;;;;;;;20.73;100.00;101281.81;5067501;28;20151;-76
2022/06/25 10:49:18;;;;;;;6.22;2.05;;;;;;;21.55;100.00;101290.72;5068972;28;20024;-77
2022/06/25 10:51:47;;;;;;;6.28;1.95;;;;;;;21.88;100.00;101284.25;5064201;28;20073;-76
2022/06/25 10:54:22;;;;;;;7.72;2.10;;;;;;;21.52;100.00;101292.22;5067989;28;20397;-77
2022/06/25 10:56:50;;;;;;;7.85;2.47;;;;;;;22.47;100.00;101296.91;5084045;28;20113;-76
2022/06/25 10:59:45;;;;;;;10.15;2.40;;;;;;;21.80;100.00;101285.97;5082191;28;20060;-74
2022/06/25 11:02:12;;;;;;;6.28;2.30;;;;;;;22.83;100.00;101284.78;5066468;28;20024;-76
2022/06/25 11:04:38;;;;;;;6.75;2.25;;;;;;;23.11;100.00;101281.19;5066270;28;20036;-76
2022/06/25 11:07:06;;;;;;;7.65;2.03;;;;;;;22.01;100.00;101283.06;5086478;28;20024;-76
2022/06/25 11:09:33;;;;;;;8.93;2.38;;;;;;;22.86;100.00;101277.69;5066645;28;20473;-76
2022/06/25 11:11:59;;;;;;;7.47;2.28;;;;;;;21.67;100.00;101285.16;5051754;28;20512;-76
2022/06/25 11:14:25;;;;;;;8.48;2.30;;;;;;;20.47;100.00;101281.19;5045440;28;20024;-76
2022/06/25 11:16:52;;;;;;;7.10;2.72;;;;;;;20.54;100.00;101268.34;5063834;28;20211;-76
2022/06/25 11:19:18;;;;;;;5.82;2.17;;;;;;;21.90;100.00;101274.34;5082957;28;20115;-77
2022/06/25 11:21:45;;;;;;;7.93;3.60;;;;;;;22.02;100.00;101281.88;5049489;28;20031;-77
2022/06/25 11:24:24;;;;;;;8.48;3.75;;;;;;;22.68;100.00;101283.56;5033587;28;20032;-76
2022/06/25 11:29:42;;;;;;;7.53;4.43;;;;;;;24.00;100.00;101273.50;5081478;28;20454;-77
2022/06/25 11:32:08;;;;;;;7.72;4.10;;;;;;;24.20;100.00;101277.16;5084670;28;20031;-77
2022/06/25 11:34:38;;;;;;;7.63;4.07;;;;;;;24.09;100.00;101276.91;5086124;28;20023;-75
2022/06/25 11:37:05;;;;;;;6.88;4.10;;;;;;;23.59;100.00;101279.25;5052476;28;20038;-76
2022/06/25 11:39:41;;;;;;;9.35;4.10;;;;;;;23.19;100.00;101279.41;5066484;28;20024;-76